sensor_id;sensor_type;location;lat;lon;timestamp;P1;durP1;ratioP1;P2;durP2;ratioP2
11447;SDS011;43755;49.736;8.734;2023-12-20T00:00:31;7.32;;;6.63;;
11447;SDS011;43755;49.736;8.734;2023-12-20T00:02:33;4.75;;;4.40;;
11447;SDS011;43755;49.736;8.734;2023-12-20T00:04:35;5.30;;;4.90;;
11447;SDS011;43755;49.736;8.734;2023-12-20T00:06:36;5.50;;;5.00;;
11447;SDS011;43755;49.736;8.734;2023-12-20T00:08:38;5.82;;;5.10;;
11447;SDS011;43755;49.736;8.734;2023-12-20T00:10:39;4.85;;;4.45;;
11447;SDS011;43755;49.736;8.734;2023-12-20T00:12:41;4.95;;;4.55;;
11447;SDS011;43755;49.736;8.734;2023-12-20T00:14:42;6.40;;;5.80;;
11447;SDS011;43755;49.736;8.734;2023-12-20T00:16:43;4.90;;;4.50;;
11447;SDS011;43755;49.736;8.734;2023-12-20T00:18:45;5.85;;;5.40;;
11447;SDS011;43755;49.736;8.734;2023-12-20T00:20:46;6.13;;;5.60;;
11447;SDS011;43755;49.736;8.734;2023-12-20T00:22:49;5.13;;;4.72;;
11447;SDS011;43755;49.736;8.734;2023-12-20T00:24:50;5.22;;;4.82;;
11447;SDS011;43755;49.736;8.734;2023-12-20T00:26:52;6.40;;;5.90;;
11447;SDS011;43755;49.736;8.734;2023-12-20T00:28:52;5.87;;;5.33;;
11447;SDS011;43755;49.736;8.734;2023-12-20T00:30:54;5.97;;;5.47;;
11447;SDS011;43755;49.736;8.734;2023-12-20T00:32:55;5.90;;;5.40;;
11447;SDS011;43755;49.736;8.734;2023-12-20T00:34:56;5.72;;;5.22;;
11447;SDS011;43755;49.736;8.734;2023-12-20T00:36:58;5.03;;;4.63;;
11447;SDS011;43755;49.736;8.734;2023-12-20T00:39:00;4.97;;;4.57;;
11447;SDS011;43755;49.736;8.734;2023-12-20T00:41:02;6.25;;;5.72;;
11447;SDS011;43755;49.736;8.734;2023-12-20T00:43:04;5.53;;;5.13;;
11447;SDS011;43755;49.736;8.734;2023-12-20T00:45:05;4.83;;;4.43;;
11447;SDS011;43755;49.736;8.734;2023-12-20T00:47:07;5.50;;;5.00;;
11447;SDS011;43755;49.736;8.734;2023-12-20T00:49:08;5.10;;;4.47;;
11447;SDS011;43755;49.736;8.734;2023-12-20T00:51:09;4.85;;;4.45;;
11447;SDS011;43755;49.736;8.734;2023-12-20T00:53:11;4.80;;;4.30;;
11447;SDS011;43755;49.736;8.734;2023-12-20T00:55:13;5.32;;;4.93;;
11447;SDS011;43755;49.736;8.734;2023-12-20T00:57:15;4.55;;;4.15;;
11447;SDS011;43755;49.736;8.734;2023-12-20T00:59:16;4.90;;;4.50;;
11447;SDS011;43755;49.736;8.734;2023-12-20T01:01:18;5.00;;;4.60;;
11447;SDS011;43755;49.736;8.734;2023-12-20T01:03:20;4.40;;;4.10;;
11447;SDS011;43755;49.736;8.734;2023-12-20T01:05:21;5.03;;;4.53;;
11447;SDS011;43755;49.736;8.734;2023-12-20T01:07:23;4.53;;;4.13;;
11447;SDS011;43755;49.736;8.734;2023-12-20T01:09:24;4.85;;;4.45;;
11447;SDS011;43755;49.736;8.734;2023-12-20T01:11:28;4.70;;;4.30;;
11447;SDS011;43755;49.736;8.734;2023-12-20T01:13:29;4.45;;;4.05;;
11447;SDS011;43755;49.736;8.734;2023-12-20T01:15:31;5.03;;;4.40;;
11447;SDS011;43755;49.736;8.734;2023-12-20T01:17:32;4.22;;;3.90;;
11447;SDS011;43755;49.736;8.734;2023-12-20T01:19:33;4.60;;;4.20;;
11447;SDS011;43755;49.736;8.734;2023-12-20T01:21:35;5.68;;;4.32;;
11447;SDS011;43755;49.736;8.734;2023-12-20T01:23:36;3.95;;;3.65;;
11447;SDS011;43755;49.736;8.734;2023-12-20T01:25:38;4.72;;;4.18;;
11447;SDS011;43755;49.736;8.734;2023-12-20T01:27:41;5.03;;;4.63;;
11447;SDS011;43755;49.736;8.734;2023-12-20T01:29:42;4.55;;;4.15;;
11447;SDS011;43755;49.736;8.734;2023-12-20T01:31:44;4.38;;;4.07;;
11447;SDS011;43755;49.736;8.734;2023-12-20T01:33:45;5.07;;;4.68;;
11447;SDS011;43755;49.736;8.734;2023-12-20T01:35:47;3.83;;;3.53;;
11447;SDS011;43755;49.736;8.734;2023-12-20T01:37:48;4.40;;;4.00;;
11447;SDS011;43755;49.736;8.734;2023-12-20T01:39:48;4.73;;;4.33;;
11447;SDS011;43755;49.736;8.734;2023-12-20T01:41:50;4.15;;;3.85;;
11447;SDS011;43755;49.736;8.734;2023-12-20T01:43:52;4.63;;;3.60;;
11447;SDS011;43755;49.736;8.734;2023-12-20T01:45:54;4.25;;;3.90;;
11447;SDS011;43755;49.736;8.734;2023-12-20T01:47:58;3.80;;;3.50;;
11447;SDS011;43755;49.736;8.734;2023-12-20T01:49:59;4.07;;;3.78;;
11447;SDS011;43755;49.736;8.734;2023-12-20T01:52:03;4.70;;;4.30;;
11447;SDS011;43755;49.736;8.734;2023-12-20T01:54:05;5.22;;;4.82;;
11447;SDS011;43755;49.736;8.734;2023-12-20T01:56:07;4.30;;;4.00;;
11447;SDS011;43755;49.736;8.734;2023-12-20T01:58:09;4.47;;;3.45;;
11447;SDS011;43755;49.736;8.734;2023-12-20T02:00:12;3.95;;;3.65;;
11447;SDS011;43755;49.736;8.734;2023-12-20T02:02:15;4.05;;;3.75;;
11447;SDS011;43755;49.736;8.734;2023-12-20T02:04:19;4.15;;;3.85;;
11447;SDS011;43755;49.736;8.734;2023-12-20T02:06:21;3.45;;;3.22;;
11447;SDS011;43755;49.736;8.734;2023-12-20T02:08:22;4.05;;;3.75;;
11447;SDS011;43755;49.736;8.734;2023-12-20T02:10:23;3.83;;;3.55;;
11447;SDS011;43755;49.736;8.734;2023-12-20T02:12:25;4.57;;;4.18;;
11447;SDS011;43755;49.736;8.734;2023-12-20T02:14:27;4.28;;;3.88;;
11447;SDS011;43755;49.736;8.734;2023-12-20T02:16:29;3.90;;;3.60;;
11447;SDS011;43755;49.736;8.734;2023-12-20T02:18:31;4.57;;;4.18;;
11447;SDS011;43755;49.736;8.734;2023-12-20T02:20:32;5.05;;;4.65;;
11447;SDS011;43755;49.736;8.734;2023-12-20T02:22:35;3.55;;;3.35;;
11447;SDS011;43755;49.736;8.734;2023-12-20T02:24:36;4.00;;;3.70;;
11447;SDS011;43755;49.736;8.734;2023-12-20T02:26:38;4.88;;;4.40;;
11447;SDS011;43755;49.736;8.734;2023-12-20T02:28:39;4.93;;;4.53;;
11447;SDS011;43755;49.736;8.734;2023-12-20T02:30:41;4.53;;;4.13;;
11447;SDS011;43755;49.736;8.734;2023-12-20T02:32:42;4.10;;;3.70;;
11447;SDS011;43755;49.736;8.734;2023-12-20T02:34:44;4.75;;;4.35;;
11447;SDS011;43755;49.736;8.734;2023-12-20T02:36:45;4.82;;;4.43;;
11447;SDS011;43755;49.736;8.734;2023-12-20T02:38:48;4.40;;;4.10;;
11447;SDS011;43755;49.736;8.734;2023-12-20T02:40:50;5.40;;;4.90;;
11447;SDS011;43755;49.736;8.734;2023-12-20T02:42:52;4.68;;;4.28;;
11447;SDS011;43755;49.736;8.734;2023-12-20T02:44:53;4.97;;;4.57;;
11447;SDS011;43755;49.736;8.734;2023-12-20T02:46:54;4.85;;;4.47;;
11447;SDS011;43755;49.736;8.734;2023-12-20T02:48:56;5.35;;;4.63;;
11447;SDS011;43755;49.736;8.734;2023-12-20T02:50:57;5.95;;;5.45;;
11447;SDS011;43755;49.736;8.734;2023-12-20T02:52:59;5.32;;;4.82;;
11447;SDS011;43755;49.736;8.734;2023-12-20T02:55:01;5.82;;;5.32;;
11447;SDS011;43755;49.736;8.734;2023-12-20T02:57:03;5.45;;;4.97;;
11447;SDS011;43755;49.736;8.734;2023-12-20T02:59:04;5.60;;;5.20;;
11447;SDS011;43755;49.736;8.734;2023-12-20T03:01:05;5.28;;;4.88;;
11447;SDS011;43755;49.736;8.734;2023-12-20T03:03:07;6.00;;;5.50;;
11447;SDS011;43755;49.736;8.734;2023-12-20T03:05:08;5.97;;;5.40;;
11447;SDS011;43755;49.736;8.734;2023-12-20T03:07:08;6.60;;;6.03;;
11447;SDS011;43755;49.736;8.734;2023-12-20T03:09:12;5.95;;;5.45;;
11447;SDS011;43755;49.736;8.734;2023-12-20T03:11:13;6.73;;;6.03;;
11447;SDS011;43755;49.736;8.734;2023-12-20T03:13:15;6.50;;;5.90;;
11447;SDS011;43755;49.736;8.734;2023-12-20T03:15:16;5.80;;;5.30;;
11447;SDS011;43755;49.736;8.734;2023-12-20T03:17:18;6.75;;;6.18;;
11447;SDS011;43755;49.736;8.734;2023-12-20T03:19:20;6.63;;;6.10;;
11447;SDS011;43755;49.736;8.734;2023-12-20T03:21:22;6.78;;;6.18;;
11447;SDS011;43755;49.736;8.734;2023-12-20T03:23:22;6.50;;;5.90;;
11447;SDS011;43755;49.736;8.734;2023-12-20T03:25:24;6.30;;;5.72;;
11447;SDS011;43755;49.736;8.734;2023-12-20T03:27:27;6.55;;;5.97;;
11447;SDS011;43755;49.736;8.734;2023-12-20T03:29:27;6.22;;;5.72;;
11447;SDS011;43755;49.736;8.734;2023-12-20T03:31:29;6.55;;;5.95;;
11447;SDS011;43755;49.736;8.734;2023-12-20T03:33:29;6.70;;;6.10;;
11447;SDS011;43755;49.736;8.734;2023-12-20T03:35:30;6.47;;;5.88;;
11447;SDS011;43755;49.736;8.734;2023-12-20T03:37:32;6.38;;;5.88;;
11447;SDS011;43755;49.736;8.734;2023-12-20T03:39:33;6.90;;;6.30;;
11447;SDS011;43755;49.736;8.734;2023-12-20T03:41:35;6.72;;;6.22;;
11447;SDS011;43755;49.736;8.734;2023-12-20T03:43:37;6.60;;;6.10;;
11447;SDS011;43755;49.736;8.734;2023-12-20T03:45:39;7.30;;;6.70;;
11447;SDS011;43755;49.736;8.734;2023-12-20T03:47:40;6.95;;;6.35;;
11447;SDS011;43755;49.736;8.734;2023-12-20T03:49:42;6.53;;;6.03;;
11447;SDS011;43755;49.736;8.734;2023-12-20T03:51:43;6.70;;;6.05;;
11447;SDS011;43755;49.736;8.734;2023-12-20T03:53:44;4.82;;;4.43;;
11447;SDS011;43755;49.736;8.734;2023-12-20T03:55:45;6.00;;;5.50;;
11447;SDS011;43755;49.736;8.734;2023-12-20T03:57:46;5.57;;;5.13;;
11447;SDS011;43755;49.736;8.734;2023-12-20T03:59:49;5.47;;;5.03;;
11447;SDS011;43755;49.736;8.734;2023-12-20T04:01:50;5.45;;;4.82;;
11447;SDS011;43755;49.736;8.734;2023-12-20T04:03:52;5.68;;;5.20;;
11447;SDS011;43755;49.736;8.734;2023-12-20T04:05:53;4.70;;;4.35;;
11447;SDS011;43755;49.736;8.734;2023-12-20T04:07:54;5.85;;;5.35;;
11447;SDS011;43755;49.736;8.734;2023-12-20T04:09:56;5.35;;;4.85;;
11447;SDS011;43755;49.736;8.734;2023-12-20T04:11:57;5.50;;;5.00;;
11447;SDS011;43755;49.736;8.734;2023-12-20T04:13:59;5.93;;;5.53;;
11447;SDS011;43755;49.736;8.734;2023-12-20T04:16:02;5.80;;;5.30;;
11447;SDS011;43755;49.736;8.734;2023-12-20T04:18:02;5.07;;;4.68;;
11447;SDS011;43755;49.736;8.734;2023-12-20T04:20:04;5.95;;;5.45;;
11447;SDS011;43755;49.736;8.734;2023-12-20T04:22:06;6.05;;;5.47;;
11447;SDS011;43755;49.736;8.734;2023-12-20T04:24:07;5.57;;;5.18;;
11447;SDS011;43755;49.736;8.734;2023-12-20T04:26:08;6.43;;;5.93;;
11447;SDS011;43755;49.736;8.734;2023-12-20T04:28:10;7.28;;;6.68;;
11447;SDS011;43755;49.736;8.734;2023-12-20T04:30:11;7.55;;;6.93;;
11447;SDS011;43755;49.736;8.734;2023-12-20T04:32:16;8.52;;;7.40;;
11447;SDS011;43755;49.736;8.734;2023-12-20T04:34:17;7.80;;;7.20;;
11447;SDS011;43755;49.736;8.734;2023-12-20T04:36:18;8.45;;;7.68;;
11447;SDS011;43755;49.736;8.734;2023-12-20T04:38:20;8.55;;;7.75;;
11447;SDS011;43755;49.736;8.734;2023-12-20T04:40:21;8.60;;;7.90;;
11447;SDS011;43755;49.736;8.734;2023-12-20T04:42:23;10.32;;;8.85;;
11447;SDS011;43755;49.736;8.734;2023-12-20T04:44:24;9.30;;;8.48;;
11447;SDS011;43755;49.736;8.734;2023-12-20T04:46:26;9.07;;;8.27;;
11447;SDS011;43755;49.736;8.734;2023-12-20T04:48:29;9.35;;;8.30;;
11447;SDS011;43755;49.736;8.734;2023-12-20T04:50:30;9.95;;;8.43;;
11447;SDS011;43755;49.736;8.734;2023-12-20T04:52:32;10.38;;;9.20;;
11447;SDS011;43755;49.736;8.734;2023-12-20T04:54:33;39.33;;;10.82;;
11447;SDS011;43755;49.736;8.734;2023-12-20T04:56:34;10.30;;;9.27;;
11447;SDS011;43755;49.736;8.734;2023-12-20T04:58:35;10.60;;;9.43;;
11447;SDS011;43755;49.736;8.734;2023-12-20T05:00:36;11.25;;;10.07;;
11447;SDS011;43755;49.736;8.734;2023-12-20T05:02:38;11.07;;;9.98;;
11447;SDS011;43755;49.736;8.734;2023-12-20T05:04:40;10.88;;;9.88;;
11447;SDS011;43755;49.736;8.734;2023-12-20T05:06:42;10.20;;;9.10;;
11447;SDS011;43755;49.736;8.734;2023-12-20T05:08:43;10.25;;;9.25;;
11447;SDS011;43755;49.736;8.734;2023-12-20T05:10:45;11.45;;;10.45;;
11447;SDS011;43755;49.736;8.734;2023-12-20T05:12:46;10.73;;;9.75;;
11447;SDS011;43755;49.736;8.734;2023-12-20T05:14:48;11.50;;;10.40;;
11447;SDS011;43755;49.736;8.734;2023-12-20T05:16:48;11.30;;;10.20;;
11447;SDS011;43755;49.736;8.734;2023-12-20T05:18:49;11.55;;;10.55;;
11447;SDS011;43755;49.736;8.734;2023-12-20T05:20:51;12.43;;;11.23;;
11447;SDS011;43755;49.736;8.734;2023-12-20T05:22:53;11.50;;;10.40;;
11447;SDS011;43755;49.736;8.734;2023-12-20T05:24:55;11.43;;;10.30;;
11447;SDS011;43755;49.736;8.734;2023-12-20T05:26:55;11.87;;;10.77;;
11447;SDS011;43755;49.736;8.734;2023-12-20T05:28:56;11.90;;;10.70;;
11447;SDS011;43755;49.736;8.734;2023-12-20T05:30:58;11.15;;;10.15;;
11447;SDS011;43755;49.736;8.734;2023-12-20T05:32:59;10.73;;;9.63;;
11447;SDS011;43755;49.736;8.734;2023-12-20T05:35:00;9.18;;;8.27;;
11447;SDS011;43755;49.736;8.734;2023-12-20T05:37:04;7.28;;;6.68;;
11447;SDS011;43755;49.736;8.734;2023-12-20T05:39:06;8.52;;;7.82;;
11447;SDS011;43755;49.736;8.734;2023-12-20T05:41:08;8.55;;;7.80;;
11447;SDS011;43755;49.736;8.734;2023-12-20T05:43:09;8.05;;;7.13;;
11447;SDS011;43755;49.736;8.734;2023-12-20T05:45:10;7.88;;;7.15;;
11447;SDS011;43755;49.736;8.734;2023-12-20T05:47:12;5.13;;;4.72;;
11447;SDS011;43755;49.736;8.734;2023-12-20T05:49:14;4.22;;;3.83;;
11447;SDS011;43755;49.736;8.734;2023-12-20T05:51:17;4.93;;;4.53;;
11447;SDS011;43755;49.736;8.734;2023-12-20T05:53:19;5.03;;;4.57;;
11447;SDS011;43755;49.736;8.734;2023-12-20T05:55:21;4.70;;;4.30;;
11447;SDS011;43755;49.736;8.734;2023-12-20T05:57:22;4.70;;;4.28;;
11447;SDS011;43755;49.736;8.734;2023-12-20T05:59:23;3.92;;;3.60;;
11447;SDS011;43755;49.736;8.734;2023-12-20T06:01:24;3.58;;;3.33;;
11447;SDS011;43755;49.736;8.734;2023-12-20T06:03:26;3.95;;;3.47;;
11447;SDS011;43755;49.736;8.734;2023-12-20T06:05:27;3.42;;;3.05;;
11447;SDS011;43755;49.736;8.734;2023-12-20T06:07:28;3.08;;;2.63;;
11447;SDS011;43755;49.736;8.734;2023-12-20T06:09:31;3.67;;;2.80;;
11447;SDS011;43755;49.736;8.734;2023-12-20T06:11:32;5.88;;;2.75;;
11447;SDS011;43755;49.736;8.734;2023-12-20T06:13:34;2.65;;;2.22;;
11447;SDS011;43755;49.736;8.734;2023-12-20T06:15:35;3.45;;;2.80;;
11447;SDS011;43755;49.736;8.734;2023-12-20T06:17:37;4.68;;;2.30;;
11447;SDS011;43755;49.736;8.734;2023-12-20T06:19:38;5.35;;;2.22;;
11447;SDS011;43755;49.736;8.734;2023-12-20T06:21:39;3.53;;;2.50;;
11447;SDS011;43755;49.736;8.734;2023-12-20T06:23:41;3.08;;;1.95;;
11447;SDS011;43755;49.736;8.734;2023-12-20T06:25:43;3.10;;;2.80;;
11447;SDS011;43755;49.736;8.734;2023-12-20T06:27:45;4.03;;;3.13;;
11447;SDS011;43755;49.736;8.734;2023-12-20T06:29:46;3.90;;;2.55;;
11447;SDS011;43755;49.736;8.734;2023-12-20T06:31:48;4.53;;;2.67;;
11447;SDS011;43755;49.736;8.734;2023-12-20T06:33:49;6.63;;;2.90;;
11447;SDS011;43755;49.736;8.734;2023-12-20T06:35:57;4.82;;;2.78;;
11447;SDS011;43755;49.736;8.734;2023-12-20T06:37:58;3.97;;;2.50;;
11447;SDS011;43755;49.736;8.734;2023-12-20T06:40:01;4.78;;;2.97;;
11447;SDS011;43755;49.736;8.734;2023-12-20T06:42:04;5.43;;;3.00;;
11447;SDS011;43755;49.736;8.734;2023-12-20T06:44:05;3.70;;;2.88;;
11447;SDS011;43755;49.736;8.734;2023-12-20T06:46:07;3.05;;;2.67;;
11447;SDS011;43755;49.736;8.734;2023-12-20T06:48:08;2.53;;;2.38;;
11447;SDS011;43755;49.736;8.734;2023-12-20T06:50:12;3.35;;;3.05;;
11447;SDS011;43755;49.736;8.734;2023-12-20T06:52:13;5.30;;;3.00;;
11447;SDS011;43755;49.736;8.734;2023-12-20T06:54:14;6.03;;;2.70;;
11447;SDS011;43755;49.736;8.734;2023-12-20T06:56:15;7.90;;;2.50;;
11447;SDS011;43755;49.736;8.734;2023-12-20T06:58:18;4.30;;;2.28;;
11447;SDS011;43755;49.736;8.734;2023-12-20T07:00:20;3.60;;;2.47;;
11447;SDS011;43755;49.736;8.734;2023-12-20T07:02:20;4.23;;;2.20;;
11447;SDS011;43755;49.736;8.734;2023-12-20T07:04:22;3.92;;;2.72;;
11447;SDS011;43755;49.736;8.734;2023-12-20T07:06:24;4.35;;;2.90;;
11447;SDS011;43755;49.736;8.734;2023-12-20T07:08:25;5.60;;;3.30;;
11447;SDS011;43755;49.736;8.734;2023-12-20T07:10:27;6.40;;;3.13;;
11447;SDS011;43755;49.736;8.734;2023-12-20T07:12:29;6.40;;;3.70;;
11447;SDS011;43755;49.736;8.734;2023-12-20T07:14:31;7.10;;;4.17;;
11447;SDS011;43755;49.736;8.734;2023-12-20T07:16:32;6.25;;;4.30;;
11447;SDS011;43755;49.736;8.734;2023-12-20T07:18:34;5.25;;;4.75;;
11447;SDS011;43755;49.736;8.734;2023-12-20T07:20:35;7.63;;;5.50;;
11447;SDS011;43755;49.736;8.734;2023-12-20T07:22:36;7.18;;;6.00;;
11447;SDS011;43755;49.736;8.734;2023-12-20T07:24:37;6.83;;;6.20;;
11447;SDS011;43755;49.736;8.734;2023-12-20T07:26:38;7.50;;;6.70;;
11447;SDS011;43755;49.736;8.734;2023-12-20T07:28:40;7.38;;;6.68;;
11447;SDS011;43755;49.736;8.734;2023-12-20T07:30:43;7.60;;;6.90;;
11447;SDS011;43755;49.736;8.734;2023-12-20T07:32:44;9.27;;;8.38;;
11447;SDS011;43755;49.736;8.734;2023-12-20T07:34:47;12.75;;;8.50;;
11447;SDS011;43755;49.736;8.734;2023-12-20T07:36:48;9.23;;;8.32;;
11447;SDS011;43755;49.736;8.734;2023-12-20T07:38:50;9.80;;;8.63;;
11447;SDS011;43755;49.736;8.734;2023-12-20T07:40:51;8.38;;;7.65;;
11447;SDS011;43755;49.736;8.734;2023-12-20T07:42:53;8.82;;;7.13;;
11447;SDS011;43755;49.736;8.734;2023-12-20T07:44:54;9.45;;;6.85;;
11447;SDS011;43755;49.736;8.734;2023-12-20T07:46:57;10.70;;;7.95;;
11447;SDS011;43755;49.736;8.734;2023-12-20T07:48:58;10.15;;;8.18;;
11447;SDS011;43755;49.736;8.734;2023-12-20T07:51:00;8.07;;;7.28;;
11447;SDS011;43755;49.736;8.734;2023-12-20T07:53:01;7.25;;;6.53;;
11447;SDS011;43755;49.736;8.734;2023-12-20T07:55:03;9.68;;;7.60;;
11447;SDS011;43755;49.736;8.734;2023-12-20T07:57:05;7.68;;;6.90;;
11447;SDS011;43755;49.736;8.734;2023-12-20T07:59:06;7.72;;;7.03;;
11447;SDS011;43755;49.736;8.734;2023-12-20T08:01:08;8.00;;;6.10;;
11447;SDS011;43755;49.736;8.734;2023-12-20T08:03:11;9.70;;;6.22;;
11447;SDS011;43755;49.736;8.734;2023-12-20T08:05:12;7.00;;;5.40;;
11447;SDS011;43755;49.736;8.734;2023-12-20T08:07:14;6.20;;;5.38;;
11447;SDS011;43755;49.736;8.734;2023-12-20T08:09:16;6.40;;;4.65;;
11447;SDS011;43755;49.736;8.734;2023-12-20T08:11:17;6.50;;;5.20;;
11447;SDS011;43755;49.736;8.734;2023-12-20T08:13:18;7.10;;;4.80;;
11447;SDS011;43755;49.736;8.734;2023-12-20T08:15:19;6.57;;;4.68;;
11447;SDS011;43755;49.736;8.734;2023-12-20T08:17:20;6.93;;;4.82;;
11447;SDS011;43755;49.736;8.734;2023-12-20T08:19:24;6.30;;;3.80;;
11447;SDS011;43755;49.736;8.734;2023-12-20T08:21:26;4.38;;;3.95;;
11447;SDS011;43755;49.736;8.734;2023-12-20T08:23:27;4.63;;;3.95;;
11447;SDS011;43755;49.736;8.734;2023-12-20T08:25:29;8.18;;;3.97;;
11447;SDS011;43755;49.736;8.734;2023-12-20T08:27:30;4.13;;;3.45;;
11447;SDS011;43755;49.736;8.734;2023-12-20T08:29:32;5.32;;;3.63;;
11447;SDS011;43755;49.736;8.734;2023-12-20T08:31:33;5.90;;;3.65;;
11447;SDS011;43755;49.736;8.734;2023-12-20T08:33:35;7.85;;;3.40;;
11447;SDS011;43755;49.736;8.734;2023-12-20T08:35:37;5.00;;;3.40;;
11447;SDS011;43755;49.736;8.734;2023-12-20T08:37:39;4.25;;;3.28;;
11447;SDS011;43755;49.736;8.734;2023-12-20T08:39:40;5.07;;;3.25;;
11447;SDS011;43755;49.736;8.734;2023-12-20T08:41:43;5.93;;;3.28;;
11447;SDS011;43755;49.736;8.734;2023-12-20T08:43:45;5.47;;;3.40;;
11447;SDS011;43755;49.736;8.734;2023-12-20T08:45:46;3.60;;;3.25;;
11447;SDS011;43755;49.736;8.734;2023-12-20T08:47:47;7.10;;;3.20;;
11447;SDS011;43755;49.736;8.734;2023-12-20T08:49:49;6.57;;;3.33;;
11447;SDS011;43755;49.736;8.734;2023-12-20T08:51:51;4.40;;;2.75;;
11447;SDS011;43755;49.736;8.734;2023-12-20T08:53:53;7.25;;;3.13;;
11447;SDS011;43755;49.736;8.734;2023-12-20T08:55:54;3.60;;;2.90;;
11447;SDS011;43755;49.736;8.734;2023-12-20T08:57:58;6.18;;;2.83;;
11447;SDS011;43755;49.736;8.734;2023-12-20T08:59:59;8.27;;;3.45;;
11447;SDS011;43755;49.736;8.734;2023-12-20T09:02:01;4.60;;;2.85;;
11447;SDS011;43755;49.736;8.734;2023-12-20T09:04:02;6.03;;;2.63;;
11447;SDS011;43755;49.736;8.734;2023-12-20T09:06:03;5.65;;;2.75;;
11447;SDS011;43755;49.736;8.734;2023-12-20T09:08:06;4.45;;;2.70;;
11447;SDS011;43755;49.736;8.734;2023-12-20T09:10:09;3.88;;;2.67;;
11447;SDS011;43755;49.736;8.734;2023-12-20T09:12:11;5.50;;;2.95;;
11447;SDS011;43755;49.736;8.734;2023-12-20T09:14:11;5.83;;;3.30;;
11447;SDS011;43755;49.736;8.734;2023-12-20T09:16:13;4.57;;;3.00;;
11447;SDS011;43755;49.736;8.734;2023-12-20T09:18:15;6.65;;;3.40;;
11447;SDS011;43755;49.736;8.734;2023-12-20T09:20:17;3.90;;;3.10;;
11447;SDS011;43755;49.736;8.734;2023-12-20T09:22:18;4.15;;;2.92;;
11447;SDS011;43755;49.736;8.734;2023-12-20T09:24:21;6.65;;;3.20;;
11447;SDS011;43755;49.736;8.734;2023-12-20T09:26:22;5.43;;;3.05;;
11447;SDS011;43755;49.736;8.734;2023-12-20T09:28:24;7.13;;;3.13;;
11447;SDS011;43755;49.736;8.734;2023-12-20T09:30:24;4.70;;;3.10;;
11447;SDS011;43755;49.736;8.734;2023-12-20T09:32:26;4.57;;;2.90;;
11447;SDS011;43755;49.736;8.734;2023-12-20T09:34:27;4.90;;;3.00;;
11447;SDS011;43755;49.736;8.734;2023-12-20T09:36:29;3.72;;;2.60;;
11447;SDS011;43755;49.736;8.734;2023-12-20T09:38:34;6.05;;;2.90;;
11447;SDS011;43755;49.736;8.734;2023-12-20T09:40:37;5.30;;;2.72;;
11447;SDS011;43755;49.736;8.734;2023-12-20T09:42:44;5.20;;;3.40;;
11447;SDS011;43755;49.736;8.734;2023-12-20T09:44:50;6.45;;;3.08;;
11447;SDS011;43755;49.736;8.734;2023-12-20T09:46:51;4.78;;;2.75;;
11447;SDS011;43755;49.736;8.734;2023-12-20T09:48:55;6.88;;;3.08;;
11447;SDS011;43755;49.736;8.734;2023-12-20T09:50:58;4.55;;;2.92;;
11447;SDS011;43755;49.736;8.734;2023-12-20T09:53:00;6.38;;;2.95;;
11447;SDS011;43755;49.736;8.734;2023-12-20T09:55:04;9.13;;;3.20;;
11447;SDS011;43755;49.736;8.734;2023-12-20T09:57:09;8.57;;;3.17;;
11447;SDS011;43755;49.736;8.734;2023-12-20T09:59:10;7.50;;;2.92;;
11447;SDS011;43755;49.736;8.734;2023-12-20T10:01:12;5.50;;;3.10;;
11447;SDS011;43755;49.736;8.734;2023-12-20T10:03:13;5.30;;;2.72;;
11447;SDS011;43755;49.736;8.734;2023-12-20T10:05:15;5.10;;;2.90;;
11447;SDS011;43755;49.736;8.734;2023-12-20T10:07:19;6.53;;;3.22;;
11447;SDS011;43755;49.736;8.734;2023-12-20T10:09:20;6.13;;;2.90;;
11447;SDS011;43755;49.736;8.734;2023-12-20T10:11:21;6.85;;;2.97;;
11447;SDS011;43755;49.736;8.734;2023-12-20T10:13:24;6.47;;;2.90;;
11447;SDS011;43755;49.736;8.734;2023-12-20T10:15:26;5.75;;;2.90;;
11447;SDS011;43755;49.736;8.734;2023-12-20T10:17:26;8.20;;;2.93;;
11447;SDS011;43755;49.736;8.734;2023-12-20T10:19:29;6.05;;;2.80;;
11447;SDS011;43755;49.736;8.734;2023-12-20T10:21:30;8.50;;;3.42;;
11447;SDS011;43755;49.736;8.734;2023-12-20T10:23:32;8.55;;;3.40;;
11447;SDS011;43755;49.736;8.734;2023-12-20T10:25:33;5.25;;;3.13;;
11447;SDS011;43755;49.736;8.734;2023-12-20T10:27:35;7.88;;;3.20;;
11447;SDS011;43755;49.736;8.734;2023-12-20T10:29:38;8.98;;;3.03;;
11447;SDS011;43755;49.736;8.734;2023-12-20T10:31:39;5.70;;;2.60;;
11447;SDS011;43755;49.736;8.734;2023-12-20T10:33:40;5.37;;;3.10;;
11447;SDS011;43755;49.736;8.734;2023-12-20T10:35:41;9.55;;;3.00;;
11447;SDS011;43755;49.736;8.734;2023-12-20T10:37:43;6.10;;;2.97;;
11447;SDS011;43755;49.736;8.734;2023-12-20T10:39:43;8.70;;;3.30;;
11447;SDS011;43755;49.736;8.734;2023-12-20T10:41:45;8.18;;;3.17;;
11447;SDS011;43755;49.736;8.734;2023-12-20T10:43:47;8.35;;;2.58;;
11447;SDS011;43755;49.736;8.734;2023-12-20T10:45:49;6.63;;;2.73;;
11447;SDS011;43755;49.736;8.734;2023-12-20T10:47:50;10.32;;;3.35;;
11447;SDS011;43755;49.736;8.734;2023-12-20T10:49:51;7.40;;;2.95;;
11447;SDS011;43755;49.736;8.734;2023-12-20T10:51:53;7.75;;;2.67;;
11447;SDS011;43755;49.736;8.734;2023-12-20T10:53:54;5.85;;;2.40;;
11447;SDS011;43755;49.736;8.734;2023-12-20T10:55:56;8.52;;;2.80;;
11447;SDS011;43755;49.736;8.734;2023-12-20T10:58:01;8.05;;;2.75;;
11447;SDS011;43755;49.736;8.734;2023-12-20T11:00:10;8.75;;;2.70;;
11447;SDS011;43755;49.736;8.734;2023-12-20T11:02:16;6.70;;;2.70;;
11447;SDS011;43755;49.736;8.734;2023-12-20T11:04:18;7.95;;;2.75;;
11447;SDS011;43755;49.736;8.734;2023-12-20T11:06:27;8.30;;;2.55;;
11447;SDS011;43755;49.736;8.734;2023-12-20T11:08:38;10.13;;;2.40;;
11447;SDS011;43755;49.736;8.734;2023-12-20T11:10:48;8.07;;;2.45;;
11447;SDS011;43755;49.736;8.734;2023-12-20T11:12:57;7.57;;;2.38;;
11447;SDS011;43755;49.736;8.734;2023-12-20T11:15:09;6.70;;;2.10;;
11447;SDS011;43755;49.736;8.734;2023-12-20T11:17:12;6.35;;;2.45;;
11447;SDS011;43755;49.736;8.734;2023-12-20T11:19:17;8.98;;;2.60;;
11447;SDS011;43755;49.736;8.734;2023-12-20T11:21:18;8.60;;;2.70;;
11447;SDS011;43755;49.736;8.734;2023-12-20T11:23:20;8.80;;;2.65;;
11447;SDS011;43755;49.736;8.734;2023-12-20T11:25:21;6.53;;;2.40;;
11447;SDS011;43755;49.736;8.734;2023-12-20T11:27:24;3.85;;;2.30;;
11447;SDS011;43755;49.736;8.734;2023-12-20T11:29:29;7.88;;;2.83;;
11447;SDS011;43755;49.736;8.734;2023-12-20T11:31:32;5.13;;;2.38;;
11447;SDS011;43755;49.736;8.734;2023-12-20T11:33:41;5.47;;;2.10;;
11447;SDS011;43755;49.736;8.734;2023-12-20T11:35:46;7.13;;;2.67;;
11447;SDS011;43755;49.736;8.734;2023-12-20T11:37:47;9.50;;;2.55;;
11447;SDS011;43755;49.736;8.734;2023-12-20T11:39:53;6.00;;;2.63;;
11447;SDS011;43755;49.736;8.734;2023-12-20T11:41:56;7.05;;;2.70;;
11447;SDS011;43755;49.736;8.734;2023-12-20T11:43:58;6.78;;;2.67;;
11447;SDS011;43755;49.736;8.734;2023-12-20T11:46:05;8.20;;;2.37;;
11447;SDS011;43755;49.736;8.734;2023-12-20T11:48:07;7.80;;;2.70;;
11447;SDS011;43755;49.736;8.734;2023-12-20T11:50:09;6.35;;;2.53;;
11447;SDS011;43755;49.736;8.734;2023-12-20T11:52:13;9.13;;;2.78;;
11447;SDS011;43755;49.736;8.734;2023-12-20T11:54:14;6.70;;;2.67;;
11447;SDS011;43755;49.736;8.734;2023-12-20T11:56:16;5.53;;;2.65;;
11447;SDS011;43755;49.736;8.734;2023-12-20T11:58:18;6.05;;;2.80;;
11447;SDS011;43755;49.736;8.734;2023-12-20T12:00:19;5.57;;;2.55;;
11447;SDS011;43755;49.736;8.734;2023-12-20T12:02:21;8.95;;;2.80;;
11447;SDS011;43755;49.736;8.734;2023-12-20T12:04:23;6.43;;;2.42;;
11447;SDS011;43755;49.736;8.734;2023-12-20T12:06:25;4.75;;;2.50;;
11447;SDS011;43755;49.736;8.734;2023-12-20T12:08:29;8.30;;;3.00;;
11447;SDS011;43755;49.736;8.734;2023-12-20T12:10:30;8.02;;;2.65;;
11447;SDS011;43755;49.736;8.734;2023-12-20T12:12:32;6.63;;;2.63;;